Time;durP1;ratioP1;P1;durP2;ratioP2;P2;SDS_P1;SDS_P2;PMS_P1;PMS_P2;Temp;Humidity;BMP_temperature;BMP_pressure;BME280_temperature;BME280_humidity;BME280_pressure;Samples;Min_cycle;Max_cycle;Signal;HPM_P1;HPM_P2
2021/03/18 00:00:13;;;;;;;8.43;7.53;;;8.50;57.90;;;;;;5004222;28;20473;-41
2021/03/18 00:02:39;;;;;;;13.00;7.47;;;8.50;57.80;;;;;;5011179;28;20198;-42
2021/03/18 00:05:07;;;;;;;7.57;6.80;;;8.50;57.80;;;;;;5011237;28;20444;-41
2021/03/18 00:07:34;;;;;;;8.70;7.80;;;8.50;57.80;;;;;;5011831;28;20320;-41
2021/03/18 00:09:59;;;;;;;8.80;7.70;;;8.50;57.80;;;;;;5008396;28;20488;-41
2021/03/18 00:12:25;;;;;;;9.10;7.93;;;8.50;57.80;;;;;;5006466;28;20841;-42
2021/03/18 00:14:52;;;;;;;8.60;7.53;;;8.50;57.90;;;;;;5004179;28;20201;-41
2021/03/18 00:17:17;;;;;;;9.00;8.20;;;8.40;58.10;;;;;;5004536;28;20445;-42
2021/03/18 00:19:43;;;;;;;9.97;7.47;;;8.40;58.30;;;;;;5010277;28;20451;-41
2021/03/18 00:22:08;;;;;;;8.83;7.33;;;8.40;58.30;;;;;;5010074;28;20197;-41
2021/03/18 00:24:34;;;;;;;10.27;8.07;;;8.40;58.20;;;;;;5008335;28;20194;-41
2021/03/18 00:26:59;;;;;;;10.53;8.00;;;8.40;58.00;;;;;;5009002;28;20239;-41
2021/03/18 00:29:25;;;;;;;11.40;8.10;;;8.40;58.10;;;;;;5010264;28;20228;-42
2021/03/18 00:31:51;;;;;;;8.47;7.67;;;8.40;58.20;;;;;;5008885;28;20277;-41
2021/03/18 00:34:16;;;;;;;9.70;8.23;;;8.30;58.30;;;;;;5007838;28;20261;-42
2021/03/18 00:36:43;;;;;;;9.60;8.70;;;8.30;58.70;;;;;;5008318;28;20197;-41
2021/03/18 00:39:09;;;;;;;10.10;9.00;;;8.30;58.80;;;;;;5011188;28;20705;-42
2021/03/18 00:41:35;;;;;;;10.83;8.70;;;8.30;59.00;;;;;;5006872;28;20459;-41
2021/03/18 00:44:02;;;;;;;11.03;9.60;;;8.30;58.80;;;;;;5004282;28;20866;-41
2021/03/18 00:46:27;;;;;;;10.20;9.10;;;8.30;59.10;;;;;;5009997;28;20445;-41
2021/03/18 00:48:53;;;;;;;10.77;9.67;;;8.30;59.10;;;;;;5006733;28;20493;-42
2021/03/18 00:51:19;;;;;;;10.60;9.50;;;8.30;58.90;;;;;;5010310;28;20641;-41
2021/03/18 00:53:47;;;;;;;10.27;9.17;;;8.30;58.70;;;;;;5008010;28;20190;-41
2021/03/18 00:56:15;;;;;;;11.57;8.87;;;8.30;58.50;;;;;;5003286;28;20528;-41
2021/03/18 00:58:45;;;;;;;10.13;9.13;;;8.30;58.40;;;;;;5002037;28;20455;-42
2021/03/18 01:01:12;;;;;;;11.17;10.03;;;8.30;58.40;;;;;;5008406;28;20446;-43
2021/03/18 01:03:40;;;;;;;12.07;9.63;;;8.30;58.40;;;;;;4988873;28;20452;-41
2021/03/18 01:06:14;;;;;;;11.63;10.43;;;8.30;58.30;;;;;;5005445;28;20936;-41
2021/03/18 01:08:40;;;;;;;11.77;10.43;;;8.40;58.30;;;;;;5007444;28;20460;-41
2021/03/18 01:11:05;;;;;;;11.43;10.33;;;8.30;58.30;;;;;;5004255;28;20460;-41
2021/03/18 01:13:32;;;;;;;13.10;10.27;;;8.40;58.30;;;;;;5004959;28;20456;-41
2021/03/18 01:16:05;;;;;;;11.63;10.43;;;8.30;58.20;;;;;;5007882;28;20280;-42
2021/03/18 01:18:37;;;;;;;11.37;9.77;;;8.30;58.20;;;;;;5006572;28;20448;-41
2021/03/18 01:21:05;;;;;;;11.63;9.93;;;8.30;58.30;;;;;;5006858;28;20476;-41
2021/03/18 01:23:31;;;;;;;10.40;9.33;;;8.30;58.20;;;;;;4998485;28;20800;-41
2021/03/18 01:25:57;;;;;;;11.47;10.27;;;8.30;58.20;;;;;;5008050;28;20441;-41
2021/03/18 01:28:23;;;;;;;11.57;9.80;;;8.30;58.50;;;;;;5003962;28;20194;-42
2021/03/18 01:30:48;;;;;;;11.00;9.90;;;8.30;58.60;;;;;;5009117;28;20567;-41
2021/03/18 01:33:14;;;;;;;11.20;10.00;;;8.30;58.70;;;;;;5007589;28;21936;-42
2021/03/18 01:35:39;;;;;;;10.93;9.40;;;8.30;58.80;;;;;;5006919;28;20264;-42
2021/03/18 01:38:05;;;;;;;10.10;9.20;;;8.30;58.80;;;;;;5007387;28;20639;-41
2021/03/18 01:40:33;;;;;;;11.47;8.80;;;8.30;58.80;;;;;;5007446;28;20615;-41
2021/03/18 01:42:59;;;;;;;10.57;9.03;;;8.30;58.70;;;;;;5000975;28;20205;-41
2021/03/18 01:45:25;;;;;;;10.53;9.37;;;8.30;58.60;;;;;;5004647;28;20485;-41
2021/03/18 01:47:53;;;;;;;11.93;10.20;;;8.30;58.70;;;;;;5003179;28;21061;-41
2021/03/18 01:50:22;;;;;;;11.20;9.30;;;8.30;58.50;;;;;;5005543;28;20714;-42
2021/03/18 01:52:48;;;;;;;10.40;9.50;;;8.30;58.40;;;;;;5006455;28;20473;-41
2021/03/18 01:55:19;;;;;;;9.70;8.77;;;8.30;58.50;;;;;;4996594;28;20480;-41
2021/03/18 01:57:46;;;;;;;10.83;9.10;;;8.30;58.40;;;;;;5008975;28;20204;-42
2021/03/18 02:00:13;;;;;;;9.27;8.33;;;8.40;58.30;;;;;;5006019;28;20940;-43
2021/03/18 02:02:39;;;;;;;9.83;8.83;;;8.40;58.20;;;;;;5002441;28;20445;-41
2021/03/18 02:05:05;;;;;;;9.00;8.10;;;8.40;58.00;;;;;;5005948;28;21296;-41
2021/03/18 02:07:31;;;;;;;12.50;8.93;;;8.40;57.90;;;;;;5008638;28;20194;-41
2021/03/18 02:09:56;;;;;;;11.00;9.80;;;8.40;58.00;;;;;;5004945;28;20500;-41
2021/03/18 02:12:22;;;;;;;9.80;8.20;;;8.40;57.90;;;;;;5009631;28;20226;-41
2021/03/18 02:14:49;;;;;;;10.27;9.00;;;8.30;57.80;;;;;;5009466;28;20280;-42
2021/03/18 02:17:22;;;;;;;9.30;8.30;;;8.30;57.90;;;;;;5004514;28;20452;-41
2021/03/18 02:20:25;;;;;;;8.70;7.90;;;8.30;57.90;;;;;;5007542;28;20455;-41
2021/03/18 02:23:21;;;;;;;9.60;8.70;;;8.30;57.70;;;;;;5001381;28;20573;-41
2021/03/18 02:26:19;;;;;;;10.57;9.57;;;8.30;57.70;;;;;;5003897;28;20455;-44
2021/03/18 02:29:06;;;;;;;11.70;9.90;;;8.30;57.60;;;;;;5004248;28;20933;-41
2021/03/18 02:31:46;;;;;;;12.10;9.47;;;8.20;57.60;;;;;;5008995;28;20855;-41
2021/03/18 02:34:27;;;;;;;11.07;9.97;;;8.20;57.80;;;;;;5008562;28;20456;-41
2021/03/18 02:36:57;;;;;;;12.60;9.93;;;8.10;58.00;;;;;;5013394;28;20535;-41
2021/03/18 02:39:27;;;;;;;11.40;9.07;;;8.20;58.30;;;;;;5008888;28;20551;-41
2021/03/18 02:41:56;;;;;;;11.63;10.43;;;8.10;58.20;;;;;;5009880;28;20456;-41
2021/03/18 02:44:29;;;;;;;11.07;9.40;;;8.10;58.20;;;;;;5006302;28;20437;-43
2021/03/18 02:47:08;;;;;;;12.30;8.80;;;8.10;58.20;;;;;;5006701;28;20944;-41
2021/03/18 02:49:36;;;;;;;12.30;9.20;;;8.20;58.30;;;;;;5010706;28;20493;-42
2021/03/18 02:52:04;;;;;;;11.90;10.00;;;8.10;58.20;;;;;;5009781;28;20465;-41
2021/03/18 02:54:32;;;;;;;11.13;10.10;;;8.20;58.20;;;;;;5008888;28;20487;-41
2021/03/18 02:57:01;;;;;;;10.70;9.60;;;8.20;58.20;;;;;;5010464;28;20511;-42
2021/03/18 02:59:33;;;;;;;11.30;10.10;;;8.20;58.00;;;;;;5009790;28;20441;-42
2021/03/18 03:02:02;;;;;;;14.67;10.43;;;8.20;57.70;;;;;;5009084;28;20848;-41
2021/03/18 03:04:30;;;;;;;10.50;8.93;;;8.20;57.60;;;;;;5001284;28;20944;-41
2021/03/18 03:06:56;;;;;;;10.70;9.33;;;8.20;57.50;;;;;;5003577;28;20445;-42
2021/03/18 03:09:22;;;;;;;10.77;9.20;;;8.20;57.30;;;;;;5009137;28;20472;-41
2021/03/18 03:11:49;;;;;;;9.80;8.53;;;8.30;57.20;;;;;;5006131;28;20491;-42
2021/03/18 03:14:15;;;;;;;9.07;8.17;;;8.30;56.90;;;;;;5011606;28;20449;-41
2021/03/18 03:16:42;;;;;;;10.30;9.30;;;8.30;56.50;;;;;;5011379;28;20437;-41
2021/03/18 03:19:09;;;;;;;10.97;8.73;;;8.30;56.50;;;;;;5010637;28;20441;-41
2021/03/18 03:21:35;;;;;;;9.47;8.07;;;8.30;56.80;;;;;;5006570;28;21239;-42
2021/03/18 03:24:03;;;;;;;9.80;8.50;;;8.30;57.20;;;;;;5009957;28;20448;-42
2021/03/18 03:26:30;;;;;;;10.20;9.20;;;8.30;57.40;;;;;;5008796;28;21140;-41
2021/03/18 03:28:57;;;;;;;10.47;8.77;;;8.30;57.50;;;;;;5008521;28;20492;-42
2021/03/18 03:31:22;;;;;;;9.40;8.40;;;8.30;57.60;;;;;;5010799;28;20453;-41
2021/03/18 03:33:49;;;;;;;9.30;8.40;;;8.30;57.50;;;;;;5009014;28;20457;-41
2021/03/18 03:36:14;;;;;;;10.20;9.07;;;8.30;57.50;;;;;;5006248;28;20202;-41
2021/03/18 03:38:40;;;;;;;9.50;8.50;;;8.30;57.50;;;;;;5001325;28;20444;-42
2021/03/18 03:41:07;;;;;;;9.83;8.50;;;8.30;57.60;;;;;;4995847;28;20193;-42
2021/03/18 03:43:33;;;;;;;8.67;7.70;;;8.30;57.30;;;;;;5006434;28;20202;-42
2021/03/18 03:46:00;;;;;;;10.70;8.23;;;8.30;57.30;;;;;;5011432;28;20491;-41
2021/03/18 03:48:29;;;;;;;8.00;7.23;;;8.20;57.20;;;;;;5012188;28;20453;-41
2021/03/18 03:50:55;;;;;;;10.93;8.93;;;8.20;57.20;;;;;;5007992;28;20504;-41
2021/03/18 03:53:43;;;;;;;9.97;8.50;;;8.20;57.10;;;;;;5000377;28;20428;-41
2021/03/18 03:56:15;;;;;;;12.00;8.00;;;8.20;57.00;;;;;;5008674;28;20944;-41
2021/03/18 03:59:06;;;;;;;7.90;7.10;;;8.20;57.40;;;;;;5010642;28;20455;-41
2021/03/18 04:01:39;;;;;;;7.40;6.70;;;8.20;57.00;;;;;;5008768;28;20461;-41
2021/03/18 04:04:27;;;;;;;7.77;6.80;;;8.20;56.90;;;;;;5007373;28;20472;-42
2021/03/18 04:06:57;;;;;;;12.50;8.37;;;8.20;56.90;;;;;;5005558;28;20472;-41
2021/03/18 04:09:23;;;;;;;8.53;7.70;;;8.20;56.90;;;;;;5009101;28;20488;-42
2021/03/18 04:11:51;;;;;;;7.40;6.70;;;8.20;56.90;;;;;;5005694;28;20566;-41
2021/03/18 04:14:20;;;;;;;9.83;7.20;;;8.20;56.90;;;;;;5010045;28;20453;-42
2021/03/18 04:16:47;;;;;;;8.43;6.67;;;8.20;56.90;;;;;;5007973;28;20950;-41
2021/03/18 04:19:18;;;;;;;6.40;5.80;;;8.20;56.90;;;;;;5010998;28;20455;-41
2021/03/18 04:21:47;;;;;;;6.17;5.57;;;8.10;56.80;;;;;;5008352;28;20444;-41
2021/03/18 04:24:14;;;;;;;7.90;6.73;;;8.10;57.20;;;;;;5008276;28;20543;-41
2021/03/18 04:26:41;;;;;;;7.10;6.40;;;8.20;57.20;;;;;;5007911;28;20441;-41
2021/03/18 04:29:08;;;;;;;7.37;5.87;;;8.20;57.00;;;;;;5006738;28;20484;-41
2021/03/18 04:31:37;;;;;;;7.17;6.03;;;8.20;56.70;;;;;;5009650;28;20445;-41
2021/03/18 04:34:04;;;;;;;9.00;6.80;;;8.20;56.60;;;;;;5010588;28;20460;-41
2021/03/18 04:36:31;;;;;;;6.73;5.80;;;8.30;56.50;;;;;;5004045;28;20449;-41
2021/03/18 04:38:57;;;;;;;6.97;6.27;;;8.20;56.20;;;;;;5009768;28;20444;-41
2021/03/18 04:41:24;;;;;;;8.70;5.97;;;8.30;56.00;;;;;;5008779;28;20455;-41
2021/03/18 04:43:51;;;;;;;6.47;5.50;;;8.30;56.00;;;;;;5010708;28;20532;-42
2021/03/18 04:46:16;;;;;;;6.23;5.63;;;8.30;55.80;;;;;;5006020;28;20491;-42
2021/03/18 04:48:43;;;;;;;9.57;6.10;;;8.30;55.90;;;;;;4992954;28;20842;-41
2021/03/18 04:51:10;;;;;;;6.20;5.50;;;8.30;56.10;;;;;;5009559;28;20252;-41
2021/03/18 04:53:36;;;;;;;6.87;6.20;;;8.30;56.10;;;;;;5007506;28;20455;-41
2021/03/18 04:56:07;;;;;;;8.07;6.33;;;8.30;56.20;;;;;;5002956;28;20440;-41
2021/03/18 04:58:34;;;;;;;5.97;5.33;;;8.30;56.10;;;;;;5005959;28;20445;-41
2021/03/18 05:01:01;;;;;;;6.10;5.47;;;8.30;56.00;;;;;;5003709;28;20452;-41
2021/03/18 05:03:27;;;;;;;6.50;5.17;;;8.20;55.80;;;;;;5008189;28;20483;-41
2021/03/18 05:05:56;;;;;;;7.33;5.60;;;8.20;55.70;;;;;;5004562;28;20841;-41
2021/03/18 05:08:23;;;;;;;6.30;5.70;;;8.20;55.80;;;;;;5007635;28;20952;-41
2021/03/18 05:10:50;;;;;;;8.37;5.30;;;8.20;56.50;;;;;;5006867;28;21598;-43
2021/03/18 05:13:16;;;;;;;5.57;5.07;;;8.20;56.00;;;;;;5008808;28;20507;-41
2021/03/18 05:15:42;;;;;;;5.70;5.17;;;8.20;56.00;;;;;;5007739;28;20472;-41
2021/03/18 05:18:12;;;;;;;7.37;4.87;;;8.20;55.90;;;;;;5004293;28;20437;-41
2021/03/18 05:20:39;;;;;;;6.50;5.63;;;8.10;55.80;;;;;;5008856;28;20461;-41
2021/03/18 05:23:07;;;;;;;6.13;5.00;;;8.10;55.80;;;;;;5005933;28;20924;-41
2021/03/18 05:25:33;;;;;;;5.60;5.03;;;8.10;55.80;;;;;;5004323;28;20449;-41
2021/03/18 05:27:59;;;;;;;7.40;4.77;;;8.10;55.80;;;;;;5008587;28;20448;-41
2021/03/18 05:30:27;;;;;;;4.67;4.27;;;8.10;55.80;;;;;;5004369;28;20870;-41
2021/03/18 05:32:57;;;;;;;5.10;4.50;;;8.10;55.70;;;;;;5002534;28;20195;-41
2021/03/18 05:35:23;;;;;;;5.57;4.80;;;8.10;55.50;;;;;;5002209;28;20544;-41
2021/03/18 05:37:48;;;;;;;9.93;4.60;;;8.10;55.40;;;;;;5006665;28;20452;-42
2021/03/18 05:40:15;;;;;;;5.40;4.33;;;8.10;55.40;;;;;;5008891;28;20871;-41
2021/03/18 05:42:41;;;;;;;7.20;4.43;;;8.10;55.40;;;;;;5005487;28;20252;-41
2021/03/18 05:45:10;;;;;;;5.60;4.20;;;8.10;55.40;;;;;;5008338;28;20528;-42
2021/03/18 05:47:37;;;;;;;6.90;4.27;;;8.10;55.30;;;;;;5006757;28;20540;-42
2021/03/18 05:50:05;;;;;;;4.63;4.13;;;8.10;55.40;;;;;;4999950;28;20488;-41
2021/03/18 05:52:33;;;;;;;7.20;4.93;;;8.10;55.30;;;;;;5009829;28;20487;-41
2021/03/18 05:54:59;;;;;;;6.50;4.90;;;8.10;55.90;;;;;;5008341;28;20464;-43
2021/03/18 05:57:25;;;;;;;8.00;4.83;;;8.10;55.40;;;;;;5008714;28;21004;-42
2021/03/18 05:59:52;;;;;;;7.43;5.03;;;8.20;55.50;;;;;;5008250;28;20502;-42
2021/03/18 06:02:18;;;;;;;5.40;4.90;;;8.20;55.50;;;;;;5007471;28;20190;-41
2021/03/18 06:04:43;;;;;;;6.40;4.60;;;8.20;55.60;;;;;;5008488;28;20452;-41
2021/03/18 06:07:09;;;;;;;4.30;3.87;;;8.20;55.50;;;;;;5008658;28;20217;-41
2021/03/18 06:09:35;;;;;;;7.73;4.00;;;8.20;55.70;;;;;;5009715;28;20660;-41
2021/03/18 06:12:02;;;;;;;5.60;4.43;;;8.20;55.80;;;;;;5005950;28;21040;-42
2021/03/18 06:14:28;;;;;;;4.60;4.20;;;8.20;55.80;;;;;;5008542;28;20460;-40
2021/03/18 06:16:54;;;;;;;5.83;4.60;;;8.30;56.60;;;;;;5013888;28;20446;-40
2021/03/18 06:19:20;;;;;;;4.37;3.97;;;8.70;57.90;;;;;;5006041;28;20448;-40
2021/03/18 06:21:53;;;;;;;6.37;4.60;;;9.00;58.00;;;;;;5010513;28;20201;-40
2021/03/18 06:24:20;;;;;;;6.43;3.53;;;9.50;57.80;;;;;;5013305;28;20784;-40
2021/03/18 06:26:45;;;;;;;5.97;3.80;;;9.70;55.30;;;;;;5009842;28;20448;-40
2021/03/18 06:29:38;;;;;;;6.63;4.50;;;9.90;52.80;;;;;;5011029;28;20484;-40
2021/03/18 06:32:12;;;;;;;4.63;3.87;;;10.00;51.50;;;;;;5000335;28;20186;-40
2021/03/18 06:34:52;;;;;;;5.50;4.27;;;10.20;51.70;;;;;;5004465;28;20496;-40
2021/03/18 06:37:30;;;;;;;6.10;4.30;;;10.40;51.00;;;;;;5008923;28;20535;-40
2021/03/18 06:39:59;;;;;;;5.70;3.60;;;10.60;50.50;;;;;;5009103;28;20459;-40
2021/03/18 06:42:24;;;;;;;7.83;4.30;;;10.70;49.60;;;;;;5008348;28;20535;-40
2021/03/18 06:45:13;;;;;;;5.60;4.30;;;10.80;49.50;;;;;;5012528;28;20468;-40
2021/03/18 06:47:40;;;;;;;7.40;3.90;;;10.90;49.20;;;;;;5010940;28;20197;-40
2021/03/18 06:50:07;;;;;;;4.60;4.10;;;11.00;48.50;;;;;;5005443;28;20575;-40
2021/03/18 06:52:36;;;;;;;6.47;4.13;;;11.00;48.20;;;;;;5011375;28;20460;-41
2021/03/18 06:55:04;;;;;;;5.87;3.80;;;11.00;47.80;;;;;;5008916;28;20460;-40
2021/03/18 06:57:30;;;;;;;5.57;4.03;;;11.10;47.70;;;;;;5008785;28;20449;-40
2021/03/18 06:59:55;;;;;;;6.23;3.93;;;11.20;47.70;;;;;;5009425;28;20452;-40
2021/03/18 07:02:21;;;;;;;6.53;4.90;;;11.20;48.00;;;;;;5008481;28;20198;-40
2021/03/18 07:04:49;;;;;;;4.70;4.20;;;11.30;47.10;;;;;;5012123;28;20974;-40
2021/03/18 07:07:17;;;;;;;8.30;3.53;;;11.30;47.00;;;;;;5013256;28;20444;-41
2021/03/18 07:09:45;;;;;;;6.33;4.20;;;11.40;47.20;;;;;;5011113;28;20670;-40
2021/03/18 07:12:30;;;;;;;6.13;4.07;;;11.60;47.50;;;;;;5008329;28;21011;-41
2021/03/18 07:15:00;;;;;;;4.60;4.20;;;11.70;46.90;;;;;;5009091;28;20511;-40
2021/03/18 07:17:30;;;;;;;5.23;4.03;;;11.80;46.70;;;;;;5003875;28;20520;-41
2021/03/18 07:20:17;;;;;;;6.20;3.97;;;12.00;46.40;;;;;;5009046;28;20829;-40
2021/03/18 07:22:53;;;;;;;6.43;3.83;;;12.00;45.50;;;;;;5008126;28;20455;-41
2021/03/18 07:25:22;;;;;;;5.57;4.60;;;12.00;45.60;;;;;;5007017;28;20499;-40
2021/03/18 07:27:51;;;;;;;10.27;4.07;;;11.90;45.60;;;;;;5008550;28;20456;-40
2021/03/18 07:30:28;;;;;;;7.93;4.00;;;11.90;46.10;;;;;;5009954;28;20503;-40
2021/03/18 07:32:55;;;;;;;5.33;4.80;;;12.00;45.90;;;;;;5011525;28;21019;-40
2021/03/18 07:35:22;;;;;;;5.70;3.43;;;12.00;46.10;;;;;;5010826;28;20494;-40
2021/03/18 07:37:49;;;;;;;6.90;4.73;;;12.10;46.50;;;;;;5013037;28;20445;-41
2021/03/18 07:40:15;;;;;;;9.13;4.20;;;12.20;46.60;;;;;;5011997;28;20441;-41
2021/03/18 07:42:42;;;;;;;6.50;5.63;;;12.30;46.30;;;;;;5013049;28;20498;-40
2021/03/18 07:45:09;;;;;;;5.77;4.40;;;12.30;45.60;;;;;;5004953;28;20441;-40
2021/03/18 07:47:35;;;;;;;5.20;3.87;;;12.40;45.70;;;;;;5002466;28;20502;-41
2021/03/18 07:50:07;;;;;;;5.30;4.80;;;12.40;45.60;;;;;;5012570;28;20481;-41
2021/03/18 07:52:34;;;;;;;4.87;4.17;;;12.50;45.30;;;;;;5013962;28;20556;-40
2021/03/18 07:55:01;;;;;;;5.33;4.50;;;12.50;45.60;;;;;;5012700;28;20455;-40
2021/03/18 07:57:26;;;;;;;5.60;5.07;;;12.60;45.50;;;;;;5005327;28;20892;-41
2021/03/18 08:00:09;;;;;;;8.83;4.50;;;12.60;45.00;;;;;;5007326;28;20441;-40
2021/03/18 08:02:34;;;;;;;5.17;4.30;;;12.70;45.00;;;;;;5012775;28;20247;-40
2021/03/18 08:05:00;;;;;;;6.53;5.27;;;12.70;44.80;;;;;;5010299;28;20425;-41
2021/03/18 08:07:46;;;;;;;5.50;4.80;;;12.70;44.80;;;;;;5001560;28;20288;-41
2021/03/18 08:10:24;;;;;;;5.83;5.13;;;12.70;44.30;;;;;;5012523;28;20703;-40
2021/03/18 08:12:54;;;;;;;14.13;5.23;;;12.70;44.80;;;;;;5012228;28;20488;-41
2021/03/18 08:15:31;;;;;;;5.10;4.60;;;12.80;44.70;;;;;;5010807;28;20535;-41
2021/03/18 08:18:15;;;;;;;7.43;4.70;;;12.70;44.50;;;;;;5012116;28;20449;-41
2021/03/18 08:20:40;;;;;;;6.50;4.40;;;12.60;45.20;;;;;;5012410;28;20456;-41
2021/03/18 08:23:24;;;;;;;7.57;5.00;;;12.70;44.80;;;;;;5012060;28;20451;-41
2021/03/18 08:26:18;;;;;;;6.80;4.50;;;12.60;45.20;;;;;;5006730;28;20277;-41
2021/03/18 08:28:47;;;;;;;8.63;5.57;;;12.60;46.10;;;;;;5012371;28;20455;-40
2021/03/18 08:31:18;;;;;;;4.40;4.00;;;12.60;45.20;;;;;;5012174;28;20441;-41
2021/03/18 08:33:50;;;;;;;8.07;5.83;;;12.60;45.50;;;;;;5011770;28;20464;-41
2021/03/18 08:36:23;;;;;;;6.57;5.47;;;12.60;45.40;;;;;;5012100;28;20491;-41
2021/03/18 08:38:51;;;;;;;7.53;4.70;;;12.70;45.80;;;;;;5011665;28;20897;-41
2021/03/18 08:41:44;;;;;;;7.13;6.00;;;12.90;46.80;;;;;;5010426;28;20433;-41
2021/03/18 08:44:42;;;;;;;8.53;5.30;;;13.10;46.70;;;;;;5008672;28;20456;-41
2021/03/18 08:47:12;;;;;;;8.13;5.53;;;13.10;45.30;;;;;;4965231;28;20460;-41
2021/03/18 08:49:38;;;;;;;8.67;5.40;;;13.10;44.60;;;;;;5011601;28;20997;-41
2021/03/18 08:52:18;;;;;;;8.50;5.70;;;13.10;44.60;;;;;;5008681;28;20529;-40
2021/03/18 08:54:49;;;;;;;7.80;5.80;;;13.10;45.60;;;;;;5008511;28;20198;-41
2021/03/18 08:57:26;;;;;;;10.40;7.53;;;13.20;45.30;;;;;;5010531;28;20440;-41
2021/03/18 08:59:57;;;;;;;7.23;6.00;;;13.30;44.60;;;;;;5009950;28;20425;-41
2021/03/18 09:02:30;;;;;;;8.10;5.87;;;13.20;44.40;;;;;;5010475;28;20930;-41
2021/03/18 09:04:57;;;;;;;6.50;5.23;;;13.20;44.40;;;;;;5006752;28;20933;-41
2021/03/18 09:07:30;;;;;;;6.33;5.77;;;13.00;44.60;;;;;;5010978;28;20444;-41
2021/03/18 09:10:11;;;;;;;10.20;5.97;;;12.80;45.10;;;;;;5008636;28;20855;-41
2021/03/18 09:12:43;;;;;;;5.90;5.30;;;12.80;45.20;;;;;;5004654;28;20484;-41
2021/03/18 09:15:10;;;;;;;8.13;5.90;;;12.80;44.40;;;;;;5009815;28;20468;-41
2021/03/18 09:17:36;;;;;;;9.10;6.17;;;12.80;44.40;;;;;;5011763;28;20971;-41
2021/03/18 09:20:04;;;;;;;8.17;5.23;;;12.70;44.00;;;;;;5011065;28;20441;-41
2021/03/18 09:22:29;;;;;;;7.27;5.90;;;12.70;44.40;;;;;;4983306;28;20733;-41
2021/03/18 09:24:58;;;;;;;5.53;5.03;;;12.80;45.00;;;;;;5003221;28;20441;-41
2021/03/18 09:27:24;;;;;;;6.70;5.90;;;12.90;44.80;;;;;;5006217;28;20704;-41
2021/03/18 09:29:50;;;;;;;12.33;7.27;;;12.90;44.60;;;;;;5010415;28;20480;-41
2021/03/18 09:32:15;;;;;;;8.47;6.20;;;12.90;44.40;;;;;;5010913;28;20328;-41
2021/03/18 09:34:43;;;;;;;9.20;6.53;;;12.80;44.10;;;;;;5002684;28;20191;-41
2021/03/18 09:37:11;;;;;;;7.27;6.10;;;12.90;44.60;;;;;;5003237;28;20444;-41
2021/03/18 09:39:37;;;;;;;12.00;6.63;;;12.90;43.70;;;;;;5010110;28;20444;-41
2021/03/18 09:42:06;;;;;;;7.93;5.53;;;12.90;43.60;;;;;;5012368;28;20494;-42
2021/03/18 09:44:33;;;;;;;8.03;6.03;;;12.80;44.20;;;;;;5013798;28;20791;-42
2021/03/18 09:47:04;;;;;;;6.87;6.03;;;12.80;44.50;;;;;;5013264;28;20595;-41
2021/03/18 09:49:36;;;;;;;6.80;5.50;;;12.90;45.10;;;;;;5013985;28;20488;-41
2021/03/18 09:52:07;;;;;;;9.43;6.37;;;12.90;45.10;;;;;;5015284;28;20443;-41
2021/03/18 09:54:33;;;;;;;6.80;5.87;;;13.20;45.40;;;;;;5006042;28;20492;-41
2021/03/18 09:57:01;;;;;;;7.17;6.20;;;13.30;45.20;;;;;;5011919;28;20455;-41
2021/03/18 09:59:27;;;;;;;7.97;5.23;;;13.40;44.60;;;;;;5012303;28;20810;-41
2021/03/18 10:01:53;;;;;;;6.50;5.40;;;13.60;44.40;;;;;;5013136;28;20445;-41
2021/03/18 10:04:20;;;;;;;4.87;4.37;;;13.60;43.20;;;;;;5008275;28;20448;-41
2021/03/18 10:06:53;;;;;;;8.30;4.93;;;13.70;41.40;;;;;;5007623;28;20490;-42
2021/03/18 10:09:31;;;;;;;5.03;4.53;;;13.60;41.10;;;;;;5005529;28;20484;-41
2021/03/18 10:11:57;;;;;;;6.07;4.80;;;13.60;40.00;;;;;;5006734;28;20980;-41
2021/03/18 10:14:44;;;;;;;4.63;4.03;;;13.70;40.60;;;;;;5010710;28;20448;-44
2021/03/18 10:17:22;;;;;;;4.00;3.60;;;13.80;40.90;;;;;;5004922;28;20259;-41
2021/03/18 10:19:56;;;;;;;5.30;4.80;;;13.70;40.20;;;;;;5013330;28;20456;-41
2021/03/18 10:22:24;;;;;;;4.77;4.20;;;13.90;38.90;;;;;;5011139;28;20440;-41
2021/03/18 10:25:07;;;;;;;9.53;5.50;;;13.90;41.70;;;;;;5012901;28;20448;-44
2021/03/18 10:27:36;;;;;;;6.00;4.80;;;14.00;42.70;;;;;;5006029;28;20471;-42
2021/03/18 10:30:11;;;;;;;5.53;4.97;;;14.30;41.30;;;;;;5011084;28;20538;-41
2021/03/18 10:32:37;;;;;;;5.40;4.40;;;14.40;39.40;;;;;;5010143;28;20440;-43
2021/03/18 10:35:05;;;;;;;6.47;4.73;;;14.50;41.10;;;;;;5011760;28;20441;-43
2021/03/18 10:37:38;;;;;;;6.57;5.40;;;14.70;41.90;;;;;;5007043;28;20519;-42
2021/03/18 10:40:25;;;;;;;7.20;5.67;;;14.90;40.30;;;;;;5010459;28;20466;-42
2021/03/18 10:42:53;;;;;;;4.97;4.20;;;14.40;39.50;;;;;;5006252;28;20453;-44
2021/03/18 10:45:22;;;;;;;9.63;4.50;;;14.70;40.10;;;;;;5006983;28;20453;-42
2021/03/18 10:47:50;;;;;;;6.60;4.47;;;15.00;39.80;;;;;;5012058;28;20460;-41
2021/03/18 10:50:19;;;;;;;5.83;5.00;;;15.30;40.00;;;;;;5009416;28;20488;-42
2021/03/18 10:53:03;;;;;;;5.67;5.10;;;15.30;37.50;;;;;;5009907;28;20499;-41
2021/03/18 10:55:40;;;;;;;4.87;4.33;;;15.40;38.10;;;;;;5008890;28;20435;-42
2021/03/18 10:58:08;;;;;;;6.03;4.60;;;15.40;36.70;;;;;;5006950;28;20444;-42
2021/03/18 11:00:38;;;;;;;6.40;5.10;;;15.30;37.60;;;;;;5002148;28;20441;-42
2021/03/18 11:03:13;;;;;;;6.53;4.60;;;15.20;37.60;;;;;;5005525;28;20540;-42
2021/03/18 11:05:48;;;;;;;7.97;4.57;;;15.20;37.70;;;;;;5001401;28;20444;-41
2021/03/18 11:08:15;;;;;;;4.70;4.23;;;15.30;37.80;;;;;;5012696;28;20428;-42
2021/03/18 11:10:51;;;;;;;4.57;4.13;;;15.20;37.40;;;;;;5007234;28;20480;-41
2021/03/18 11:13:23;;;;;;;5.90;4.13;;;15.10;37.30;;;;;;5012304;28;20484;-42
2021/03/18 11:16:00;;;;;;;6.53;4.57;;;15.00;36.70;;;;;;5013131;28;20471;-41
2021/03/18 11:18:31;;;;;;;4.57;4.17;;;15.00;37.30;;;;;;5011974;28;20931;-42
2021/03/18 11:20:57;;;;;;;8.43;4.77;;;15.00;36.00;;;;;;5012012;28;20848;-42
2021/03/18 11:23:29;;;;;;;5.30;4.80;;;15.10;36.20;;;;;;5004056;28;20441;-42
2021/03/18 11:26:00;;;;;;;5.67;5.17;;;14.80;38.00;;;;;;5007968;28;20448;-43
2021/03/18 11:28:27;;;;;;;7.97;5.90;;;14.60;38.40;;;;;;5009447;28;20449;-42
2021/03/18 11:30:56;;;;;;;9.50;5.43;;;14.50;39.10;;;;;;5012969;28;20476;-41
2021/03/18 11:33:30;;;;;;;5.60;5.03;;;14.50;39.70;;;;;;5012386;28;20443;-42
2021/03/18 11:35:56;;;;;;;4.97;4.50;;;14.40;40.80;;;;;;5012085;28;20440;-42
2021/03/18 11:38:22;;;;;;;5.10;3.80;;;14.50;41.40;;;;;;5011837;28;20440;-42
2021/03/18 11:40:47;;;;;;;4.40;4.00;;;14.40;40.30;;;;;;5005914;28;20252;-41
2021/03/18 11:43:14;;;;;;;5.20;4.30;;;14.10;41.20;;;;;;5011149;28;20194;-41
2021/03/18 11:45:40;;;;;;;4.90;3.70;;;14.30;42.00;;;;;;5006162;28;20198;-42
2021/03/18 11:48:08;;;;;;;4.47;4.07;;;14.40;40.90;;;;;;5010553;28;20448;-43
2021/03/18 11:50:35;;;;;;;5.17;3.30;;;14.30;39.30;;;;;;5012119;28;20583;-41
2021/03/18 11:53:01;;;;;;;5.03;4.00;;;14.20;39.10;;;;;;5010717;28;21031;-43
2021/03/18 11:55:27;;;;;;;4.23;3.57;;;14.10;38.60;;;;;;5011000;28;20441;-42
2021/03/18 11:57:59;;;;;;;4.60;3.73;;;14.10;38.80;;;;;;5010164;28;20514;-42
2021/03/18 12:00:30;;;;;;;4.70;3.30;;;14.00;38.80;;;;;;5009987;28;20573;-41
2021/03/18 12:02:57;;;;;;;4.00;2.97;;;14.00;38.00;;;;;;5012071;28;20476;-42
2021/03/18 12:05:24;;;;;;;3.87;3.50;;;13.90;37.90;;;;;;5008022;28;20444;-42
2021/03/18 12:07:49;;;;;;;4.20;3.07;;;13.90;37.20;;;;;;5010250;28;20502;-43
2021/03/18 12:10:15;;;;;;;4.27;3.57;;;13.90;35.90;;;;;;5011846;28;20492;-42
2021/03/18 12:12:42;;;;;;;6.00;3.40;;;13.70;35.70;;;;;;5011914;28;20647;-41
2021/03/18 12:15:10;;;;;;;4.03;3.60;;;13.50;36.70;;;;;;5011140;28;20244;-42
2021/03/18 12:17:36;;;;;;;4.27;3.40;;;13.50;37.00;;;;;;5011524;28;20460;-43
2021/03/18 12:20:07;;;;;;;4.80;3.90;;;13.30;36.50;;;;;;5011282;28;20437;-41
2021/03/18 12:22:33;;;;;;;4.10;3.50;;;13.30;37.00;;;;;;5010753;28;20437;-43
2021/03/18 12:25:00;;;;;;;6.70;3.77;;;13.40;36.80;;;;;;5004211;28;20494;-42
2021/03/18 12:27:25;;;;;;;4.20;3.33;;;13.50;36.50;;;;;;5008243;28;20448;-43
2021/03/18 12:29:51;;;;;;;4.90;3.80;;;13.40;36.80;;;;;;5011185;28;21050;-43
2021/03/18 12:32:17;;;;;;;3.60;3.13;;;13.50;36.70;;;;;;5011554;28;20190;-42
2021/03/18 12:34:43;;;;;;;4.60;4.20;;;13.40;38.10;;;;;;5010636;28;20437;-42
2021/03/18 12:37:08;;;;;;;4.83;4.10;;;13.60;39.20;;;;;;5009655;28;20197;-42
2021/03/18 12:39:34;;;;;;;4.97;3.80;;;13.40;38.20;;;;;;5002860;28;20264;-41
2021/03/18 12:41:59;;;;;;;5.60;4.30;;;13.40;38.20;;;;;;5006992;28;20204;-42
2021/03/18 12:44:25;;;;;;;7.07;4.53;;;13.40;38.30;;;;;;5007139;28;20198;-41
2021/03/18 12:46:51;;;;;;;4.27;3.87;;;13.50;38.40;;;;;;5009462;28;20190;-42
2021/03/18 12:49:16;;;;;;;4.70;3.50;;;13.50;38.60;;;;;;4998775;28;20225;-42
2021/03/18 12:51:42;;;;;;;3.70;3.40;;;13.50;37.60;;;;;;5003651;28;20665;-42
2021/03/18 12:54:08;;;;;;;3.97;3.67;;;13.30;37.50;;;;;;5002117;28;20269;-41
2021/03/18 12:56:34;;;;;;;5.47;3.67;;;13.30;37.10;;;;;;5010049;28;20189;-43
2021/03/18 12:59:00;;;;;;;4.07;3.23;;;13.40;37.00;;;;;;5008454;28;20198;-42